Time;durP1;ratioP1;P1;durP2;ratioP2;P2;SDS_P1;SDS_P2;PMS_P1;PMS_P2;Temp;Humidity;BMP_temperature;BMP_pressure;BME280_temperature;BME280_humidity;BME280_pressure;Samples;Min_cycle;Max_cycle;Signal;HPM_P1;HPM_P2
2022/01/09 00:00:06;;;;;;;;;;;;;;;3.23;94.10;98266.56;5034250;27;20495;-69
2022/01/09 00:02:31;;;;;;;;;;;;;;;3.19;94.24;98264.41;5053488;27;19907;-68
2022/01/09 00:04:56;;;;;;;;;;;;;;;3.19;94.46;98267.03;5053936;27;19978;-68
2022/01/09 00:07:21;;;;;;;;;;;;;;;3.23;93.83;98250.06;5045961;27;19907;-67
2022/01/09 00:09:47;;;;;;;;;;;;;;;3.23;93.88;98257.91;5012838;28;19908;-68
2022/01/09 00:12:12;;;;;;;;;;;;;;;3.25;93.60;98250.75;5055642;27;20152;-68
2022/01/09 00:14:37;;;;;;;;;;;;;;;3.21;93.99;98244.16;5069485;27;19907;-68
2022/01/09 00:17:03;;;;;;;;;;;;;;;3.23;94.03;98244.84;5044828;27;19948;-67
2022/01/09 00:19:28;;;;;;;;;;;;;;;3.21;94.54;98236.31;5056076;27;20031;-68
2022/01/09 00:21:53;;;;;;;;;;;;;;;3.20;94.43;98235.50;5039598;27;20638;-69
2022/01/09 00:24:18;;;;;;;;;;;;;;;3.35;94.54;98238.38;5054924;27;19907;-68
2022/01/09 00:26:43;;;;;;;;;;;;;;;3.28;94.37;98224.28;5081048;27;19903;-69
2022/01/09 00:29:10;;;;;;;;;;;;;;;3.27;94.68;98230.47;5059563;27;19962;-70
2022/01/09 00:31:35;;;;;;;;;;;;;;;3.29;93.83;98222.50;5077849;27;20964;-68
2022/01/09 00:34:00;;;;;;;;;;;;;;;3.28;93.93;98221.69;5058854;27;19907;-70
2022/01/09 00:36:26;;;;;;;;;;;;;;;3.26;94.40;98221.84;5065309;27;19908;-67
2022/01/09 00:38:51;;;;;;;;;;;;;;;3.28;93.99;98226.91;5061955;27;19923;-68
2022/01/09 00:41:16;;;;;;;;;;;;;;;3.29;93.93;98222.50;5057396;27;19940;-70
2022/01/09 00:43:41;;;;;;;;;;;;;;;3.40;93.95;98217.03;5064178;27;20389;-67
2022/01/09 00:46:07;;;;;;;;;;;;;;;3.35;93.64;98217.47;5055773;27;19923;-68
2022/01/09 00:48:32;;;;;;;;;;;;;;;3.39;93.54;98215.38;5078627;27;20318;-67
2022/01/09 00:50:58;;;;;;;;;;;;;;;3.32;94.06;98214.38;5074784;27;20000;-69
2022/01/09 00:53:24;;;;;;;;;;;;;;;3.32;94.15;98215.19;5077352;27;20370;-69
2022/01/09 00:55:49;;;;;;;;;;;;;;;3.35;94.03;98211.44;5041141;27;20722;-68
2022/01/09 00:58:14;;;;;;;;;;;;;;;3.37;94.10;98205.09;5076566;27;19919;-69
2022/01/09 01:00:39;;;;;;;;;;;;;;;3.33;94.04;98203.75;5038442;27;20114;-69
2022/01/09 01:03:05;;;;;;;;;;;;;;;3.34;94.26;98213.25;5038933;27;19970;-70
2022/01/09 01:05:30;;;;;;;;;;;;;;;3.32;94.27;98206.53;5056343;27;19910;-69
2022/01/09 01:07:55;;;;;;;;;;;;;;;3.35;94.10;98211.44;5032574;27;19904;-69
2022/01/09 01:10:20;;;;;;;;;;;;;;;3.30;94.44;98209.28;5031957;27;19956;-69
2022/01/09 01:12:46;;;;;;;;;;;;;;;3.39;93.96;98207.53;5022629;27;19912;-69
2022/01/09 01:15:11;;;;;;;;;;;;;;;3.38;94.27;98206.72;5055182;27;20490;-69
2022/01/09 01:17:37;;;;;;;;;;;;;;;3.40;94.68;98209.19;5054141;27;20374;-69
2022/01/09 01:20:03;;;;;;;;;;;;;;;3.36;94.61;98205.25;5059776;27;19923;-69
2022/01/09 01:22:29;;;;;;;;;;;;;;;3.32;94.55;98199.50;5056061;27;19904;-69
2022/01/09 01:24:56;;;;;;;;;;;;;;;3.34;94.49;98194.94;5036216;27;20157;-69
2022/01/09 01:27:21;;;;;;;;;;;;;;;3.46;94.22;98203.34;5058552;27;20164;-69
2022/01/09 01:29:47;;;;;;;;;;;;;;;3.40;94.34;98199.53;5053901;27;19907;-68
2022/01/09 01:32:12;;;;;;;;;;;;;;;3.38;94.89;98196.25;5057232;27;19950;-69
2022/01/09 01:34:37;;;;;;;;;;;;;;;3.38;94.70;98201.47;5053957;27;20011;-68
2022/01/09 01:37:02;;;;;;;;;;;;;;;3.41;94.67;98206.44;5028876;27;19917;-68
2022/01/09 01:39:28;;;;;;;;;;;;;;;3.43;94.56;98203.66;5054668;27;19923;-70
2022/01/09 01:41:53;;;;;;;;;;;;;;;3.48;94.69;98208.41;5053151;27;19903;-70
2022/01/09 01:44:18;;;;;;;;;;;;;;;3.51;94.53;98210.72;5036985;27;19927;-69
2022/01/09 01:46:43;;;;;;;;;;;;;;;3.44;94.50;98208.72;5032524;27;19955;-69
2022/01/09 01:49:12;;;;;;;;;;;;;;;3.40;95.01;98210.00;5055376;27;19918;-69
2022/01/09 01:51:44;;;;;;;;;;;;;;;3.44;95.15;98203.50;5038206;27;19915;-69
2022/01/09 01:54:10;;;;;;;;;;;;;;;3.41;94.66;98209.03;5056452;27;19926;-70
2022/01/09 01:56:35;;;;;;;;;;;;;;;3.42;94.77;98202.81;5058501;27;20356;-69
2022/01/09 01:59:00;;;;;;;;;;;;;;;3.44;95.12;98210.50;5051962;27;20040;-70
2022/01/09 02:01:25;;;;;;;;;;;;;;;3.47;95.70;98204.16;5056047;27;20420;-69
2022/01/09 02:03:50;;;;;;;;;;;;;;;3.52;95.34;98213.16;5052608;27;20069;-69
2022/01/09 02:06:17;;;;;;;;;;;;;;;3.49;95.35;98208.25;5056094;27;20276;-68
2022/01/09 02:08:43;;;;;;;;;;;;;;;3.46;95.18;98213.00;5031880;27;19908;-68
2022/01/09 02:11:08;;;;;;;;;;;;;;;3.44;95.70;98211.34;5029396;27;19920;-68
2022/01/09 02:13:33;;;;;;;;;;;;;;;3.53;96.34;98224.47;5053603;27;19944;-68
2022/01/09 02:16:00;;;;;;;;;;;;;;;3.52;96.25;98230.66;5020002;27;19907;-67
2022/01/09 02:18:26;;;;;;;;;;;;;;;3.58;95.93;98232.66;5057588;27;20672;-69
2022/01/09 02:20:51;;;;;;;;;;;;;;;3.61;96.55;98245.44;5015466;27;19999;-68
2022/01/09 02:23:17;;;;;;;;;;;;;;;3.65;96.58;98261.63;5037078;27;20349;-70
2022/01/09 02:25:42;;;;;;;;;;;;;;;3.78;95.94;98260.25;5036781;27;19910;-69
2022/01/09 02:28:08;;;;;;;;;;;;;;;3.94;95.27;98263.94;5053441;27;19910;-69
2022/01/09 02:30:33;;;;;;;;;;;;;;;4.04;94.52;98275.09;5057778;27;20532;-68
2022/01/09 02:33:02;;;;;;;;;;;;;;;4.19;94.40;98280.56;5034681;27;19904;-68
2022/01/09 02:35:27;;;;;;;;;;;;;;;4.30;94.31;98284.69;5033443;27;20020;-69
2022/01/09 02:37:52;;;;;;;;;;;;;;;4.31;94.95;98299.44;5051753;27;20613;-69
2022/01/09 02:40:18;;;;;;;;;;;;;;;4.37;94.71;98322.38;5051400;27;19912;-69
2022/01/09 02:42:43;;;;;;;;;;;;;;;4.35;91.76;98339.22;5033445;27;19911;-68
2022/01/09 02:45:08;;;;;;;;;;;;;;;4.36;91.22;98344.28;5049523;27;19930;-68
2022/01/09 02:47:34;;;;;;;;;;;;;;;4.27;91.31;98361.75;5027798;27;19915;-68
2022/01/09 02:50:12;;;;;;;;;;;;;;;4.13;90.05;98381.47;5047401;27;19915;-68
2022/01/09 02:52:51;;;;;;;;;;;;;;;3.98;88.96;98382.16;5054337;27;19917;-69
2022/01/09 02:55:16;;;;;;;;;;;;;;;3.83;89.53;98400.22;5073063;27;19907;-69
2022/01/09 02:57:42;;;;;;;;;;;;;;;3.78;90.53;98411.97;5057053;27;20308;-69
2022/01/09 03:00:08;;;;;;;;;;;;;;;3.81;90.66;98430.94;5053862;27;20556;-69
2022/01/09 03:02:33;;;;;;;;;;;;;;;3.76;91.58;98424.34;5057466;27;20849;-69
2022/01/09 03:04:58;;;;;;;;;;;;;;;3.77;91.64;98443.50;5038798;27;19907;-67
2022/01/09 03:07:24;;;;;;;;;;;;;;;3.75;92.18;98443.66;5054086;27;20230;-68
2022/01/09 03:09:49;;;;;;;;;;;;;;;3.76;92.65;98447.91;5043040;27;20151;-69
2022/01/09 03:12:15;;;;;;;;;;;;;;;3.92;92.46;98451.63;5045327;27;19903;-68
2022/01/09 03:14:40;;;;;;;;;;;;;;;3.84;92.40;98456.81;5038128;27;19899;-68
2022/01/09 03:17:05;;;;;;;;;;;;;;;3.96;92.25;98468.66;5049937;27;19907;-69
2022/01/09 03:19:31;;;;;;;;;;;;;;;4.04;92.03;98471.38;5055223;27;19995;-69
2022/01/09 03:21:56;;;;;;;;;;;;;;;3.94;92.45;98489.75;5050254;27;19903;-69
2022/01/09 03:24:21;;;;;;;;;;;;;;;3.93;92.65;98488.13;5055460;27;20112;-69
2022/01/09 03:26:46;;;;;;;;;;;;;;;3.89;93.51;98494.63;5044175;27;19996;-69
2022/01/09 03:29:11;;;;;;;;;;;;;;;4.07;92.83;98489.38;5056356;27;20000;-69
2022/01/09 03:31:37;;;;;;;;;;;;;;;4.10;92.40;98489.09;5032427;27;19955;-69
2022/01/09 03:34:02;;;;;;;;;;;;;;;4.18;91.45;98500.59;5055084;27;19903;-69
2022/01/09 03:36:27;;;;;;;;;;;;;;;4.06;92.96;98497.38;5048720;27;20004;-69
2022/01/09 03:38:52;;;;;;;;;;;;;;;4.16;92.47;98492.06;5046851;27;19923;-69
2022/01/09 03:41:17;;;;;;;;;;;;;;;4.08;92.56;98517.19;5031870;27;19988;-69
2022/01/09 03:43:43;;;;;;;;;;;;;;;4.28;91.96;98519.66;5032406;27;20403;-69
2022/01/09 03:46:08;;;;;;;;;;;;;;;4.24;91.54;98520.94;5015033;27;20055;-68
2022/01/09 03:48:33;;;;;;;;;;;;;;;4.27;91.27;98521.47;5053372;27;19956;-70
2022/01/09 03:50:58;;;;;;;;;;;;;;;4.26;90.74;98538.13;5051893;27;19918;-69
2022/01/09 03:53:24;;;;;;;;;;;;;;;4.36;90.60;98552.91;5033461;27;19959;-70
2022/01/09 03:55:49;;;;;;;;;;;;;;;4.29;91.05;98565.81;5014076;27;19956;-69
2022/01/09 03:58:14;;;;;;;;;;;;;;;4.25;91.71;98578.38;5052191;27;19919;-69
2022/01/09 04:00:39;;;;;;;;;;;;;;;4.30;92.05;98580.53;5016444;27;19911;-68
2022/01/09 04:03:05;;;;;;;;;;;;;;;4.29;91.59;98582.34;5034427;27;19911;-68
2022/01/09 04:05:30;;;;;;;;;;;;;;;4.36;91.60;98587.81;5028968;27;20027;-67
2022/01/09 04:07:55;;;;;;;;;;;;;;;4.41;91.69;98585.56;5051062;27;19908;-67
2022/01/09 04:10:24;;;;;;;;;;;;;;;4.46;90.64;98600.81;5008389;27;19964;-68
2022/01/09 04:12:57;;;;;;;;;;;;;;;4.38;91.30;98609.41;5032578;28;19935;-68
2022/01/09 04:15:23;;;;;;;;;;;;;;;4.29;91.03;98616.38;5050732;27;19907;-68
2022/01/09 04:17:55;;;;;;;;;;;;;;;4.33;90.27;98616.91;5054381;27;20012;-68
2022/01/09 04:20:24;;;;;;;;;;;;;;;4.24;91.10;98630.88;5051583;27;19923;-69
2022/01/09 04:22:49;;;;;;;;;;;;;;;4.36;91.23;98619.22;5032713;27;19907;-68
2022/01/09 04:25:14;;;;;;;;;;;;;;;4.37;90.18;98630.50;5033790;27;19951;-69
2022/01/09 04:27:39;;;;;;;;;;;;;;;4.22;91.24;98643.31;5043804;27;20866;-68
2022/01/09 04:30:05;;;;;;;;;;;;;;;4.20;91.11;98650.47;5054796;27;20259;-69
2022/01/09 04:32:31;;;;;;;;;;;;;;;4.26;91.62;98665.59;5051515;27;20904;-70
2022/01/09 04:34:56;;;;;;;;;;;;;;;4.21;90.99;98667.84;5052821;27;19903;-69
2022/01/09 04:37:21;;;;;;;;;;;;;;;4.10;91.55;98669.69;5052609;27;20687;-68
2022/01/09 04:39:49;;;;;;;;;;;;;;;4.08;92.41;98663.75;5049334;27;20348;-69
2022/01/09 04:42:14;;;;;;;;;;;;;;;3.98;93.03;98688.31;5066138;27;20166;-69
2022/01/09 04:44:39;;;;;;;;;;;;;;;4.06;93.26;98685.81;5051829;27;20955;-69
2022/01/09 04:47:09;;;;;;;;;;;;;;;4.03;94.13;98697.38;5050955;27;19925;-69
2022/01/09 04:49:40;;;;;;;;;;;;;;;4.07;94.30;98697.94;5050593;27;20191;-67
2022/01/09 04:52:08;;;;;;;;;;;;;;;4.29;94.31;98702.78;5053953;27;19903;-68
2022/01/09 04:54:33;;;;;;;;;;;;;;;4.47;93.80;98702.81;5046070;27;19918;-68
2022/01/09 04:57:00;;;;;;;;;;;;;;;4.53;93.44;98721.53;5054503;27;19899;-69
2022/01/09 04:59:26;;;;;;;;;;;;;;;4.60;92.92;98722.56;5055656;27;20240;-68
2022/01/09 05:01:51;;;;;;;;;;;;;;;4.62;93.27;98726.66;5050488;27;20812;-68
2022/01/09 05:04:16;;;;;;;;;;;;;;;4.65;92.04;98749.13;5052610;27;20869;-69
2022/01/09 05:06:41;;;;;;;;;;;;;;;4.62;92.43;98750.25;5024004;27;20810;-68
2022/01/09 05:09:06;;;;;;;;;;;;;;;4.71;91.93;98758.19;5035112;27;19944;-69
2022/01/09 05:11:32;;;;;;;;;;;;;;;4.80;91.82;98773.84;5034034;27;19911;-68
2022/01/09 05:13:57;;;;;;;;;;;;;;;4.71;91.25;98776.53;5038955;27;20009;-69
2022/01/09 05:16:22;;;;;;;;;;;;;;;4.66;91.00;98784.84;5031764;27;20074;-68
2022/01/09 05:18:59;;;;;;;;;;;;;;;4.73;90.78;98788.53;5034904;27;20024;-68
2022/01/09 05:21:24;;;;;;;;;;;;;;;4.71;89.78;98803.59;5034261;27;19915;-68
2022/01/09 05:23:49;;;;;;;;;;;;;;;4.81;90.12;98811.38;5017048;27;20303;-68
2022/01/09 05:26:14;;;;;;;;;;;;;;;4.73;88.39;98804.25;5033193;27;19919;-68
2022/01/09 05:28:39;;;;;;;;;;;;;;;4.73;88.85;98819.97;4999512;28;19965;-68
2022/01/09 05:31:05;;;;;;;;;;;;;;;4.72;88.31;98830.59;5025732;27;19941;-68
2022/01/09 05:33:30;;;;;;;;;;;;;;;4.56;88.68;98833.84;5036876;27;20073;-69
2022/01/09 05:35:55;;;;;;;;;;;;;;;4.60;88.40;98850.94;5032697;27;19911;-68
2022/01/09 05:38:20;;;;;;;;;;;;;;;4.59;88.79;98859.75;5031493;27;19999;-68
2022/01/09 05:40:46;;;;;;;;;;;;;;;4.57;87.86;98852.03;5018969;27;19908;-69
2022/01/09 05:43:12;;;;;;;;;;;;;;;4.55;88.42;98871.50;5018490;27;20964;-68
2022/01/09 05:45:37;;;;;;;;;;;;;;;4.58;88.57;98876.44;5036341;27;19923;-68
2022/01/09 05:48:02;;;;;;;;;;;;;;;4.60;89.06;98877.13;5033207;27;20262;-68
2022/01/09 05:50:28;;;;;;;;;;;;;;;4.58;88.85;98879.06;5037372;27;19935;-68
2022/01/09 05:52:53;;;;;;;;;;;;;;;4.75;88.82;98894.03;5034512;27;19907;-68
2022/01/09 05:55:18;;;;;;;;;;;;;;;4.64;88.07;98894.22;5016842;27;19948;-68
2022/01/09 05:57:43;;;;;;;;;;;;;;;4.62;88.12;98896.94;5033168;27;20040;-68
2022/01/09 06:00:09;;;;;;;;;;;;;;;4.60;88.10;98912.00;5017661;27;20432;-68
2022/01/09 06:02:34;;;;;;;;;;;;;;;4.62;88.18;98911.84;5034366;27;20012;-69
2022/01/09 06:04:59;;;;;;;;;;;;;;;4.69;87.65;98918.16;5049693;27;20020;-69
2022/01/09 06:07:25;;;;;;;;;;;;;;;4.60;86.74;98924.28;5046103;27;19908;-68
2022/01/09 06:09:50;;;;;;;;;;;;;;;4.68;87.15;98932.22;5037690;27;20013;-68
2022/01/09 06:12:15;;;;;;;;;;;;;;;4.62;87.33;98935.44;5029601;27;20054;-69
2022/01/09 06:14:41;;;;;;;;;;;;;;;4.48;86.50;98936.72;5034065;27;19911;-68
2022/01/09 06:17:06;;;;;;;;;;;;;;;4.55;86.32;98936.97;4998514;27;19908;-67
2022/01/09 06:19:32;;;;;;;;;;;;;;;4.69;85.28;98954.84;5034006;27;19923;-71
2022/01/09 06:21:57;;;;;;;;;;;;;;;4.66;84.41;98951.72;5022755;27;19918;-67
2022/01/09 06:24:22;;;;;;;;;;;;;;;4.63;85.05;98966.72;5033053;27;19988;-67
2022/01/09 06:26:47;;;;;;;;;;;;;;;4.60;85.02;98980.13;5033486;27;20910;-67
2022/01/09 06:29:12;;;;;;;;;;;;;;;4.67;84.43;98971.69;5032594;27;20372;-67
2022/01/09 06:31:38;;;;;;;;;;;;;;;4.68;84.26;98975.94;5040817;27;20885;-71
2022/01/09 06:34:03;;;;;;;;;;;;;;;4.64;84.37;98993.78;5033876;27;19911;-68
2022/01/09 06:36:28;;;;;;;;;;;;;;;4.65;84.26;98990.16;5039520;27;20054;-67
2022/01/09 06:38:53;;;;;;;;;;;;;;;4.67;82.84;99003.13;5030604;27;19964;-68
2022/01/09 06:41:19;;;;;;;;;;;;;;;4.68;82.84;99005.59;5041244;27;19952;-68
2022/01/09 06:43:44;;;;;;;;;;;;;;;4.50;83.99;99008.13;5053277;27;19903;-68
2022/01/09 06:46:09;;;;;;;;;;;;;;;4.58;83.34;99002.19;5074523;27;20019;-68
2022/01/09 06:48:35;;;;;;;;;;;;;;;4.61;83.46;99012.38;5057811;27;19962;-70
2022/01/09 06:51:00;;;;;;;;;;;;;;;4.64;84.02;99025.22;5056357;27;19951;-71
2022/01/09 06:53:25;;;;;;;;;;;;;;;4.49;82.98;99032.66;5058603;27;20069;-68
2022/01/09 06:55:51;;;;;;;;;;;;;;;4.55;83.52;99026.84;5037461;27;19948;-70
2022/01/09 06:58:18;;;;;;;;;;;;;;;4.63;82.93;99037.47;5039009;27;20811;-70
2022/01/09 07:00:43;;;;;;;;;;;;;;;4.58;82.74;99051.94;5037893;27;19940;-69
2022/01/09 07:03:09;;;;;;;;;;;;;;;4.56;82.24;99049.47;5076648;27;20027;-71
2022/01/09 07:05:34;;;;;;;;;;;;;;;4.62;82.21;99059.38;5031565;27;20846;-70
2022/01/09 07:07:59;;;;;;;;;;;;;;;4.59;82.75;99064.91;5032009;27;20844;-70
2022/01/09 07:10:24;;;;;;;;;;;;;;;4.61;82.62;99063.00;5031992;27;19978;-69
2022/01/09 07:12:50;;;;;;;;;;;;;;;4.56;82.81;99074.84;5032465;27;20000;-70
2022/01/09 07:15:15;;;;;;;;;;;;;;;4.55;83.17;99070.56;5055566;27;19911;-69
2022/01/09 07:17:40;;;;;;;;;;;;;;;4.52;82.69;99074.28;5056256;27;20808;-70
2022/01/09 07:20:06;;;;;;;;;;;;;;;4.56;82.70;99085.31;5036055;27;20860;-69
2022/01/09 07:22:31;;;;;;;;;;;;;;;4.61;82.32;99094.44;5054291;27;19900;-71
2022/01/09 07:24:56;;;;;;;;;;;;;;;4.53;82.74;99088.22;5057267;27;20954;-69
2022/01/09 07:27:22;;;;;;;;;;;;;;;4.62;83.54;99097.84;5032707;27;20371;-69
2022/01/09 07:29:47;;;;;;;;;;;;;;;4.59;82.24;99111.25;5055971;27;20043;-69
2022/01/09 07:32:12;;;;;;;;;;;;;;;4.63;81.42;99113.44;5054709;27;20314;-69
2022/01/09 07:34:37;;;;;;;;;;;;;;;4.58;81.43;99117.44;5055165;27;20701;-69
2022/01/09 07:37:03;;;;;;;;;;;;;;;4.65;80.36;99118.53;5045587;27;19922;-68
2022/01/09 07:39:28;;;;;;;;;;;;;;;4.66;80.58;99122.81;5034898;27;19935;-68
2022/01/09 07:41:53;;;;;;;;;;;;;;;4.67;80.53;99121.84;5051512;27;19963;-67
2022/01/09 07:44:19;;;;;;;;;;;;;;;4.72;79.37;99131.91;5039230;27;19927;-68
2022/01/09 07:46:44;;;;;;;;;;;;;;;4.69;80.05;99133.00;5052930;27;20464;-68
2022/01/09 07:49:09;;;;;;;;;;;;;;;4.72;80.89;99135.34;5054660;27;19997;-68
2022/01/09 07:51:34;;;;;;;;;;;;;;;4.64;80.10;99146.53;5034210;27;20015;-68
2022/01/09 07:53:59;;;;;;;;;;;;;;;4.71;79.39;99152.06;5055002;27;19907;-69
2022/01/09 07:56:25;;;;;;;;;;;;;;;4.68;80.88;99151.50;5052297;27;20015;-68
2022/01/09 07:58:50;;;;;;;;;;;;;;;4.70;80.88;99171.34;5054027;27;19919;-68
2022/01/09 08:01:15;;;;;;;;;;;;;;;4.74;80.75;99167.50;5034346;27;20663;-68
2022/01/09 08:03:40;;;;;;;;;;;;;;;4.82;80.94;99175.50;5053758;27;20733;-68
2022/01/09 08:06:06;;;;;;;;;;;;;;;4.88;79.91;99181.97;5055655;27;20135;-68
2022/01/09 08:08:31;;;;;;;;;;;;;;;4.89;79.63;99186.22;5044193;27;19915;-68
2022/01/09 08:10:56;;;;;;;;;;;;;;;4.73;80.45;99192.03;5053893;27;19903;-68
2022/01/09 08:13:21;;;;;;;;;;;;;;;4.68;81.38;99201.28;5033115;27;19952;-68
2022/01/09 08:15:47;;;;;;;;;;;;;;;4.75;80.66;99210.25;5035969;27;20384;-68
2022/01/09 08:18:12;;;;;;;;;;;;;;;4.77;80.67;99216.19;5026616;27;19911;-68
2022/01/09 08:20:37;;;;;;;;;;;;;;;4.80;79.73;99219.34;5055663;27;20550;-69
2022/01/09 08:23:02;;;;;;;;;;;;;;;4.70;80.73;99205.41;5016027;27;20021;-69
2022/01/09 08:25:28;;;;;;;;;;;;;;;4.80;80.79;99219.34;5029751;27;20836;-67
2022/01/09 08:27:53;;;;;;;;;;;;;;;4.84;80.12;99221.69;5020735;27;20246;-68
2022/01/09 08:30:19;;;;;;;;;;;;;;;4.81;79.95;99234.13;5038146;27;20130;-69
2022/01/09 08:32:45;;;;;;;;;;;;;;;4.64;80.62;99229.56;5036756;27;19986;-68
2022/01/09 08:35:10;;;;;;;;;;;;;;;4.68;80.44;99240.59;5055928;27;20078;-70
2022/01/09 08:37:36;;;;;;;;;;;;;;;5.17;83.53;99246.66;5036695;27;19907;-69
2022/01/09 08:40:01;;;;;;;;;;;;;;;5.50;79.84;99242.75;5055709;27;19927;-69
2022/01/09 08:42:26;;;;;;;;;;;;;;;5.29;77.54;99244.75;5038497;27;20343;-67
2022/01/09 08:44:52;;;;;;;;;;;;;;;4.87;79.02;99258.94;5071492;27;19991;-67
2022/01/09 08:47:17;;;;;;;;;;;;;;;4.93;79.78;99261.00;5051328;27;20021;-68
2022/01/09 08:49:42;;;;;;;;;;;;;;;4.88;80.34;99257.16;5040368;27;19975;-68
2022/01/09 08:52:08;;;;;;;;;;;;;;;4.88;80.11;99257.16;5054824;27;20824;-69
2022/01/09 08:54:33;;;;;;;;;;;;;;;4.79;81.28;99269.28;5036218;27;20234;-69
2022/01/09 08:56:58;;;;;;;;;;;;;;;4.77;80.55;99276.47;5059548;27;19953;-68
2022/01/09 08:59:24;;;;;;;;;;;;;;;4.80;81.22;99270.94;5036601;27;19931;-68
2022/01/09 09:01:49;;;;;;;;;;;;;;;4.75;81.36;99279.22;5048236;27;19932;-68
2022/01/09 09:04:14;;;;;;;;;;;;;;;4.84;81.72;99277.56;5041549;27;20214;-68
2022/01/09 09:06:40;;;;;;;;;;;;;;;4.72;81.25;99278.66;5035667;27;19904;-69
2022/01/09 09:09:05;;;;;;;;;;;;;;;4.81;81.73;99283.91;5035953;27;19964;-68
2022/01/09 09:11:30;;;;;;;;;;;;;;;4.76;82.42;99283.47;5031968;27;20016;-69
2022/01/09 09:13:55;;;;;;;;;;;;;;;4.75;82.13;99273.97;5026055;27;19918;-69
2022/01/09 09:16:21;;;;;;;;;;;;;;;4.79;81.88;99288.47;5042685;27;19930;-69
2022/01/09 09:18:47;;;;;;;;;;;;;;;4.71;82.63;99282.22;5059270;27;20362;-71
2022/01/09 09:21:12;;;;;;;;;;;;;;;4.79;81.30;99293.72;5038171;27;19912;-68
2022/01/09 09:23:38;;;;;;;;;;;;;;;4.89;80.36;99298.94;5056289;27;20117;-70
2022/01/09 09:26:03;;;;;;;;;;;;;;;5.03;79.84;99304.78;5023173;27;20710;-67
2022/01/09 09:28:28;;;;;;;;;;;;;;;4.91;80.26;99304.06;5038432;27;19934;-68
2022/01/09 09:30:53;;;;;;;;;;;;;;;4.84;80.17;99308.19;5022413;27;20099;-68
2022/01/09 09:33:18;;;;;;;;;;;;;;;4.80;80.46;99318.94;5034854;27;19907;-68
2022/01/09 09:35:44;;;;;;;;;;;;;;;4.71;81.23;99327.63;5025250;27;19914;-68
2022/01/09 09:38:09;;;;;;;;;;;;;;;4.72;80.54;99326.63;5025386;27;19903;-68
2022/01/09 09:40:34;;;;;;;;;;;;;;;4.74;80.51;99329.97;5028597;27;19907;-68
2022/01/09 09:42:59;;;;;;;;;;;;;;;4.84;80.96;99334.38;5012472;27;19934;-68
2022/01/09 09:45:25;;;;;;;;;;;;;;;4.75;81.72;99336.88;5022587;27;21306;-67
2022/01/09 09:47:50;;;;;;;;;;;;;;;4.73;79.93;99333.53;5028817;27;19948;-69
2022/01/09 09:50:15;;;;;;;;;;;;;;;4.73;80.62;99346.66;5032931;27;20737;-69
2022/01/09 09:52:41;;;;;;;;;;;;;;;4.72;80.49;99346.78;5050229;27;19908;-69
2022/01/09 09:55:06;;;;;;;;;;;;;;;4.79;80.63;99351.38;5059829;27;20444;-68
2022/01/09 09:57:32;;;;;;;;;;;;;;;4.79;79.96;99359.22;5019255;27;20238;-68
2022/01/09 10:00:01;;;;;;;;;;;;;;;4.77;79.82;99360.31;5041967;27;20847;-69
2022/01/09 10:02:26;;;;;;;;;;;;;;;4.73;80.36;99362.38;5046246;27;19903;-69
2022/01/09 10:05:02;;;;;;;;;;;;;;;4.93;80.29;99372.91;5043401;27;19971;-69
2022/01/09 10:07:27;;;;;;;;;;;;;;;4.85;80.27;99368.34;5039243;27;19911;-69
2022/01/09 10:09:53;;;;;;;;;;;;;;;4.75;80.02;99381.44;5039035;27;20819;-69
2022/01/09 10:12:22;;;;;;;;;;;;;;;4.80;79.90;99387.06;5052757;27;20135;-67
2022/01/09 10:14:47;;;;;;;;;;;;;;;4.78;80.82;99385.53;5071182;27;20327;-68
2022/01/09 10:17:13;;;;;;;;;;;;;;;4.79;80.61;99390.69;5049056;27;19912;-69
2022/01/09 10:19:42;;;;;;;;;;;;;;;4.70;80.48;99386.22;5066444;27;19934;-69
2022/01/09 10:22:08;;;;;;;;;;;;;;;4.77;80.02;99397.84;5048121;27;20362;-68
2022/01/09 10:24:33;;;;;;;;;;;;;;;4.66;80.55;99407.59;5032713;27;19911;-68
2022/01/09 10:26:58;;;;;;;;;;;;;;;4.70;80.92;99396.72;5066599;27;19907;-69
2022/01/09 10:29:23;;;;;;;;;;;;;;;4.80;81.23;99401.97;5052551;27;20111;-68
2022/01/09 10:31:52;;;;;;;;;;;;;;;4.84;80.88;99403.38;5050828;27;19955;-68
2022/01/09 10:34:17;;;;;;;;;;;;;;;4.91;79.72;99414.16;5062833;27;19906;-68
2022/01/09 10:36:43;;;;;;;;;;;;;;;4.94;79.63;99414.72;5057414;27;19914;-69
2022/01/09 10:39:10;;;;;;;;;;;;;;;4.85;80.16;99425.16;5038167;27;19919;-69
2022/01/09 10:41:44;;;;;;;;;;;;;;;4.75;81.17;99420.75;5042666;27;19925;-69
2022/01/09 10:44:13;;;;;;;;;;;;;;;4.92;80.36;99424.53;5064351;27;19923;-68
2022/01/09 10:46:38;;;;;;;;;;;;;;;4.85;79.81;99430.41;5037911;27;19903;-69
2022/01/09 10:49:03;;;;;;;;;;;;;;;5.01;79.33;99435.16;5044755;27;19971;-69
2022/01/09 10:51:28;;;;;;;;;;;;;;;5.04;78.77;99438.34;5062674;27;19907;-68
2022/01/09 10:53:53;;;;;;;;;;;;;;;5.10;79.03;99445.66;5036866;27;19964;-69
2022/01/09 10:56:24;;;;;;;;;;;;;;;5.15;78.30;99437.41;5041465;27;20004;-68
2022/01/09 10:58:50;;;;;;;;;;;;;;;5.01;78.14;99440.41;5039059;27;20785;-68
2022/01/09 11:01:15;;;;;;;;;;;;;;;5.25;78.10;99442.69;5061703;27;20176;-68
2022/01/09 11:03:50;;;;;;;;;;;;;;;5.30;77.62;99448.34;5062889;27;19968;-68
2022/01/09 11:06:16;;;;;;;;;;;;;;;5.38;77.83;99453.75;5022761;27;20161;-70
2022/01/09 11:08:41;;;;;;;;;;;;;;;5.37;76.46;99452.06;5036706;27;20768;-69
2022/01/09 11:11:10;;;;;;;;;;;;;;;5.22;76.96;99458.66;5033193;27;19912;-68
2022/01/09 11:13:36;;;;;;;;;;;;;;;5.23;77.42;99458.56;5044670;27;19908;-69
2022/01/09 11:18:46;;;;;;;;;;;;;;;5.10;77.75;99455.34;5037941;27;19925;-68
2022/01/09 11:21:11;;;;;;;;;;;;;;;5.15;78.71;99463.63;5064365;27;19911;-68
2022/01/09 11:23:45;;;;;;;;;;;;;;;5.23;78.18;99465.56;5056700;27;19911;-67
2022/01/09 11:26:11;;;;;;;;;;;;;;;5.22;78.04;99462.13;5045866;27;19911;-70
2022/01/09 11:28:37;;;;;;;;;;;;;;;5.25;78.06;99471.53;5046636;27;20887;-68
2022/01/09 11:31:11;;;;;;;;;;;;;;;5.32;77.97;99470.03;5034827;27;19911;-69
2022/01/09 11:33:42;;;;;;;;;;;;;;;5.49;76.33;99469.38;5062466;27;20138;-68
2022/01/09 11:36:14;;;;;;;;;;;;;;;5.45;76.86;99469.78;5062998;27;19995;-67
2022/01/09 11:38:51;;;;;;;;;;;;;;;5.46;77.12;99476.69;5059775;27;20114;-68
2022/01/09 11:41:21;;;;;;;;;;;;;;;5.44;76.86;99471.59;5047350;27;20004;-68
2022/01/09 11:43:50;;;;;;;;;;;;;;;5.40;76.52;99480.69;5046674;27;19914;-70
2022/01/09 11:46:15;;;;;;;;;;;;;;;5.41;76.82;99479.69;5063028;27;20368;-68
2022/01/09 11:48:42;;;;;;;;;;;;;;;5.48;76.69;99486.06;5067494;27;20012;-68
2022/01/09 11:51:08;;;;;;;;;;;;;;;5.48;76.72;99485.25;5048001;27;19926;-69
2022/01/09 11:53:52;;;;;;;;;;;;;;;5.42;76.54;99485.78;5067693;27;19944;-69
2022/01/09 11:56:37;;;;;;;;;;;;;;;5.56;76.44;99489.84;5061575;27;19907;-69
2022/01/09 11:59:18;;;;;;;;;;;;;;;5.59;77.58;99493.00;5059146;27;19915;-69
2022/01/09 12:01:44;;;;;;;;;;;;;;;5.72;76.60;99497.16;5054328;27;19907;-68
2022/01/09 12:04:28;;;;;;;;;;;;;;;5.73;75.40;99483.91;5038286;27;20680;-68
2022/01/09 12:06:56;;;;;;;;;;;;;;;5.91;75.23;99485.84;5048666;27;19964;-68
2022/01/09 12:09:34;;;;;;;;;;;;;;;6.75;73.74;99477.31;5028639;27;20243;-69
2022/01/09 12:12:02;;;;;;;;;;;;;;;7.47;70.30;99479.34;5034679;27;19907;-67
2022/01/09 12:15:02;;;;;;;;;;;;;;;8.05;67.97;99480.72;5039056;27;19903;-67
2022/01/09 12:17:38;;;;;;;;;;;;;;;9.31;62.92;99490.91;5043416;27;20309;-69
2022/01/09 12:20:05;;;;;;;;;;;;;;;9.35;62.62;99492.25;5077656;27;20100;-69
2022/01/09 12:22:45;;;;;;;;;;;;;;;9.60;61.33;99498.44;5044063;27;20142;-70
2022/01/09 12:25:23;;;;;;;;;;;;;;;10.19;58.78;99488.75;5047913;27;19911;-69
2022/01/09 12:27:56;;;;;;;;;;;;;;;10.39;58.83;99499.84;5054178;27;19940;-68
2022/01/09 12:30:34;;;;;;;;;;;;;;;10.88;57.58;99491.84;5028759;27;19920;-70
2022/01/09 12:33:05;;;;;;;;;;;;;;;10.94;56.72;99491.19;5030832;27;19975;-68
2022/01/09 12:35:30;;;;;;;;;;;;;;;10.49;57.08;99489.91;5057470;27;20913;-69
2022/01/09 12:37:57;;;;;;;;;;;;;;;9.78;59.85;99498.28;5038535;27;19911;-69
2022/01/09 12:40:23;;;;;;;;;;;;;;;9.38;60.56;99509.59;5057801;27;20724;-68
2022/01/09 12:42:50;;;;;;;;;;;;;;;9.00;62.01;99506.47;5040613;27;20095;-69
2022/01/09 12:45:21;;;;;;;;;;;;;;;8.68;63.12;99506.09;5064231;27;20745;-69
2022/01/09 12:47:46;;;;;;;;;;;;;;;8.25;64.09;99505.13;5065341;27;19907;-69
2022/01/09 12:50:12;;;;;;;;;;;;;;;7.87;66.61;99520.25;5063139;27;20043;-70
2022/01/09 12:52:37;;;;;;;;;;;;;;;8.51;65.65;99509.63;5061899;27;19899;-68
2022/01/09 12:55:06;;;;;;;;;;;;;;;9.26;62.84;99515.16;5043370;27;20027;-68